createdAt,value
2018-05-01T00:00:08.236Z,59.54
2018-05-01T00:02:36.498Z,59.92
2018-05-01T00:05:08.729Z,59.19
2018-05-01T00:07:37.846Z,58.99
2018-05-01T00:10:06.502Z,60.07
2018-05-01T00:12:34.816Z,59.80
2018-05-01T00:15:03.138Z,60.57
2018-05-01T00:17:31.446Z,60.50
2018-05-01T00:25:07.575Z,60.86
2018-05-01T00:27:35.834Z,61.38
2018-05-01T00:30:04.106Z,61.04
2018-05-01T00:32:32.385Z,60.83
2018-05-01T00:35:00.660Z,61.07
2018-05-01T00:37:28.942Z,61.74
2018-05-01T00:39:57.245Z,61.40
2018-05-01T00:42:25.528Z,62.12
2018-05-01T00:44:53.801Z,61.21
2018-05-01T00:47:22.075Z,61.13
2018-05-01T00:49:50.351Z,60.84
2018-05-01T00:52:36.516Z,59.60
2018-05-01T00:55:04.788Z,59.83
2018-05-01T00:57:33.068Z,59.80
2018-05-01T01:00:01.331Z,59.66
2018-05-01T01:02:29.608Z,59.56
2018-05-01T01:04:57.878Z,59.57
2018-05-01T01:07:26.158Z,60.13
2018-05-01T01:09:54.420Z,60.45
2018-05-01T01:12:22.709Z,59.68
2018-05-01T01:14:50.984Z,59.75
2018-05-01T01:17:19.260Z,59.81
2018-05-01T01:19:47.577Z,60.18
2018-05-01T01:22:15.851Z,59.83
2018-05-01T01:24:44.295Z,59.68
2018-05-01T01:27:12.610Z,60.64
2018-05-01T01:29:40.902Z,59.50
2018-05-01T01:32:15.685Z,59.32
2018-05-01T01:34:43.957Z,59.30
2018-05-01T01:37:11.434Z,59.55
2018-05-01T01:39:38.937Z,59.29
2018-05-01T01:42:06.412Z,58.86
2018-05-01T01:44:33.903Z,58.96
2018-05-01T01:47:01.392Z,59.41
2018-05-01T01:49:29.644Z,60.02
2018-05-01T01:51:57.122Z,59.58
2018-05-01T01:54:25.357Z,59.26
2018-05-01T01:56:52.848Z,60.01
2018-05-01T01:59:21.079Z,60.23
2018-05-01T02:01:48.578Z,60.19
2018-05-01T02:04:16.963Z,60.26
2018-05-01T02:06:45.250Z,60.10
2018-05-01T02:09:12.735Z,60.11
2018-05-01T02:11:40.219Z,60.52
2018-05-01T02:14:07.785Z,60.91
2018-05-01T02:16:35.277Z,60.40
2018-05-01T02:19:03.513Z,59.76
2018-05-01T02:21:31.053Z,59.28
2018-05-01T02:23:58.521Z,60.20
2018-05-01T02:26:26.025Z,60.43
2018-05-01T02:28:54.242Z,60.44
2018-05-01T02:31:21.736Z,58.35
2018-05-01T02:33:50.025Z,58.49
2018-05-01T02:36:18.686Z,56.78
2018-05-01T02:38:46.170Z,57.78
2018-05-01T02:41:14.450Z,58.15
2018-05-01T02:43:41.892Z,57.84
2018-05-01T02:46:10.106Z,57.35
2018-05-01T02:48:37.660Z,56.90
2018-05-01T02:51:05.145Z,57.80
2018-05-01T02:53:32.621Z,57.35
2018-05-01T02:56:00.961Z,57.75
2018-05-01T02:58:28.457Z,58.35
2018-05-01T03:00:56.680Z,57.94
2018-05-01T03:03:24.345Z,57.66
2018-05-01T03:05:51.818Z,58.03
2018-05-01T03:08:19.316Z,58.10
2018-05-01T03:10:47.548Z,58.29
2018-05-01T03:13:15.038Z,59.01
2018-05-01T03:15:43.279Z,58.86
2018-05-01T03:18:10.788Z,58.92
2018-05-01T03:20:38.278Z,59.22
2018-05-01T03:23:05.770Z,59.38
2018-05-01T03:25:33.251Z,60.35
2018-05-01T03:28:01.478Z,60.59
2018-05-01T03:30:28.973Z,60.25
2018-05-01T03:32:57.257Z,60.16
2018-05-01T03:35:25.737Z,61.01
2018-05-01T03:37:53.996Z,60.28
2018-05-01T03:40:21.462Z,60.23
2018-05-01T03:42:49.710Z,61.24
2018-05-01T03:45:17.197Z,61.94
2018-05-01T03:47:45.429Z,60.97
2018-05-01T03:50:12.916Z,61.11
2018-05-01T03:52:40.414Z,62.25
2018-05-01T03:55:07.885Z,61.88
2018-05-01T03:57:35.357Z,63.06
2018-05-01T04:00:02.864Z,62.71
2018-05-01T04:02:31.125Z,62.68
2018-05-01T04:04:59.385Z,63.74
2018-05-01T04:07:27.898Z,62.80
2018-05-01T04:09:57.093Z,61.99
2018-05-01T04:12:25.320Z,62.76
2018-05-01T04:14:52.817Z,62.76
2018-05-01T04:17:21.031Z,62.05
2018-05-01T04:19:48.513Z,62.96
2018-05-01T04:22:15.994Z,63.25
2018-05-01T04:24:44.256Z,62.55
2018-05-01T04:27:12.502Z,62.83
2018-05-01T04:29:40.006Z,62.29
2018-05-01T04:32:08.271Z,62.20
2018-05-01T04:34:36.522Z,61.94
2018-05-01T04:37:04.040Z,62.22
2018-05-01T04:39:31.586Z,63.21
2018-05-01T04:41:59.054Z,62.55
2018-05-01T04:44:26.548Z,62.35
2018-05-01T04:46:54.081Z,62.77
2018-05-01T04:49:21.623Z,62.60
2018-05-01T04:51:49.222Z,63.02
2018-05-01T04:54:16.643Z,62.90
2018-05-01T04:56:44.211Z,63.47
2018-05-01T04:59:11.673Z,63.23
2018-05-01T05:01:39.152Z,63.33
2018-05-01T05:04:06.635Z,63.27
2018-05-01T05:06:34.924Z,63.26
2018-05-01T05:09:02.396Z,63.06
2018-05-01T05:11:29.896Z,62.97
2018-05-01T05:13:57.357Z,62.81
2018-05-01T05:16:24.842Z,62.69
2018-05-01T05:18:53.081Z,63.89
2018-05-01T05:21:20.605Z,62.99
2018-05-01T05:23:48.071Z,63.68
2018-05-01T05:26:15.724Z,63.72
2018-05-01T05:28:43.334Z,62.86
2018-05-01T05:31:10.884Z,62.68
2018-05-01T05:33:38.381Z,62.31
2018-05-01T05:36:05.868Z,63.00
2018-05-01T05:38:33.607Z,61.86
2018-05-01T05:41:01.223Z,62.77
2018-05-01T05:43:28.756Z,62.72
2018-05-01T05:45:56.257Z,62.81
2018-05-01T05:48:24.540Z,63.68
2018-05-01T05:50:52.764Z,63.01
2018-05-01T05:53:20.281Z,62.93
2018-05-01T05:55:47.798Z,62.83
2018-05-01T05:58:15.370Z,63.54
2018-05-01T06:00:43.596Z,63.26
2018-05-01T06:03:11.095Z,61.65
2018-05-01T06:05:39.369Z,60.95
2018-05-01T06:08:07.671Z,60.38
2018-05-01T06:10:35.150Z,59.69
2018-05-01T06:13:02.613Z,60.66
2018-05-01T06:15:30.162Z,59.54
2018-05-01T06:17:57.664Z,60.55
2018-05-01T06:20:25.177Z,61.16
2018-05-01T06:22:52.641Z,60.16
2018-05-01T06:25:20.125Z,60.35
2018-05-01T06:27:47.601Z,59.56
2018-05-01T06:30:15.848Z,60.02
2018-05-01T06:32:43.317Z,59.90
2018-05-01T06:35:10.845Z,60.04
2018-05-01T06:37:38.392Z,59.90
2018-05-01T06:40:05.875Z,60.62
2018-05-01T06:42:33.357Z,60.51
2018-05-01T06:45:01.619Z,59.58
2018-05-01T06:47:29.109Z,59.72
2018-05-01T06:49:57.518Z,59.58
2018-05-01T06:52:25.026Z,60.24
2018-05-01T06:54:53.536Z,60.29
2018-05-01T06:57:21.076Z,60.70
2018-05-01T06:59:48.559Z,60.34
2018-05-01T07:02:16.034Z,59.73
2018-05-01T07:04:43.681Z,60.11
2018-05-01T07:07:11.169Z,60.76
2018-05-01T07:09:38.627Z,60.15
2018-05-01T07:12:06.109Z,59.46
2018-05-01T07:14:34.345Z,61.26
2018-05-01T07:17:01.838Z,57.91
2018-05-01T07:19:30.073Z,59.22
2018-05-01T07:21:57.950Z,59.73
2018-05-01T07:24:25.500Z,58.02
2018-05-01T07:26:53.540Z,57.70
2018-05-01T07:29:22.270Z,57.27
2018-05-01T07:31:49.833Z,57.81
2018-05-01T07:34:17.566Z,56.90
2018-05-01T07:36:45.234Z,56.53
2018-05-01T07:39:12.707Z,55.92
2018-05-01T07:41:40.565Z,55.88
2018-05-01T07:44:09.501Z,55.11
2018-05-01T07:46:37.453Z,55.28
2018-05-01T07:49:05.570Z,55.50
2018-05-01T07:51:33.579Z,55.75
2018-05-01T07:54:01.384Z,53.98
2018-05-01T07:56:29.398Z,54.16
2018-05-01T07:58:56.929Z,54.34
2018-05-01T08:01:24.894Z,54.86
2018-05-01T08:03:53.322Z,54.86
2018-05-01T08:06:21.851Z,52.95
2018-05-01T08:08:49.435Z,53.85
2018-05-01T08:11:17.004Z,54.69
2018-05-01T08:13:44.552Z,54.97
2018-05-01T08:16:12.414Z,54.39
2018-05-01T08:18:39.953Z,54.62
2018-05-01T08:21:07.693Z,54.60
2018-05-01T08:23:35.532Z,55.92
2018-05-01T08:26:03.239Z,54.77
2018-05-01T08:28:30.893Z,54.89
2018-05-01T08:30:58.653Z,55.92
2018-05-01T08:33:26.403Z,55.55
2018-05-01T08:35:54.758Z,56.00
2018-05-01T08:38:22.742Z,56.97
2018-05-01T08:40:51.369Z,55.28
2018-05-01T08:43:20.344Z,56.19
2018-05-01T08:45:48.341Z,57.64
2018-05-01T08:48:15.889Z,55.60
2018-05-01T08:50:44.503Z,56.03
2018-05-01T08:53:12.123Z,56.73
2018-05-01T08:55:40.606Z,56.24
2018-05-01T08:58:08.086Z,55.94
2018-05-01T09:00:36.124Z,54.57
2018-05-01T09:03:03.945Z,55.00
2018-05-01T09:05:32.738Z,54.43
2018-05-01T09:08:01.052Z,54.21
2018-05-01T09:10:28.542Z,53.88
2018-05-01T09:12:56.592Z,53.35
2018-05-01T09:15:29.397Z,54.07
2018-05-01T09:17:57.361Z,54.68
2018-05-01T09:20:25.294Z,54.29
2018-05-01T09:22:53.065Z,54.71
2018-05-01T09:25:20.862Z,54.92
2018-05-01T09:27:48.533Z,55.86
2018-05-01T09:30:16.472Z,54.91
2018-05-01T09:32:45.148Z,54.90
2018-05-01T09:35:12.898Z,54.31
2018-05-01T09:37:40.488Z,53.23
2018-05-01T09:40:08.234Z,53.21
2018-05-01T09:42:35.853Z,54.45
2018-05-01T09:45:03.598Z,53.73
2018-05-01T09:47:31.638Z,53.56
2018-05-01T09:49:59.431Z,52.69
2018-05-01T09:52:28.743Z,53.83
2018-05-01T09:54:57.210Z,53.68
2018-05-01T09:57:25.796Z,52.27
2018-05-01T09:59:54.616Z,52.35
2018-05-01T10:02:23.166Z,51.97
2018-05-01T10:04:51.752Z,52.56
2018-05-01T10:07:20.381Z,52.22
2018-05-01T10:09:48.805Z,50.62
2018-05-01T10:12:17.246Z,47.05
2018-05-01T10:14:46.382Z,46.97
2018-05-01T10:17:14.944Z,46.21
2018-05-01T10:19:43.500Z,46.97
2018-05-01T10:22:13.395Z,46.89
2018-05-01T10:24:41.938Z,46.99
2018-05-01T10:27:10.435Z,45.59
2018-05-01T10:29:38.780Z,44.52
2018-05-01T10:32:08.312Z,45.74
2018-05-01T10:34:37.850Z,45.35
2018-05-01T10:37:06.287Z,44.23
2018-05-01T10:39:35.629Z,44.31
2018-05-01T10:42:04.975Z,46.71
2018-05-01T10:44:33.708Z,45.87
2018-05-01T10:47:03.160Z,44.96
2018-05-01T10:49:31.677Z,39.53
2018-05-01T10:52:00.250Z,39.62
2018-05-01T10:54:28.893Z,41.20
2018-05-01T10:56:58.651Z,41.59
2018-05-01T10:59:27.244Z,40.79
2018-05-01T11:01:55.548Z,38.62
2018-05-01T11:04:25.004Z,39.68
2018-05-01T11:06:53.685Z,42.74
2018-05-01T11:09:22.084Z,41.70
2018-05-01T11:11:50.619Z,38.36
2018-05-01T11:14:19.759Z,37.38
2018-05-01T11:16:49.190Z,36.85
2018-05-01T11:19:17.767Z,40.38
2018-05-01T11:21:46.351Z,37.44
2018-05-01T11:24:14.874Z,38.24
2018-05-01T11:26:43.906Z,42.44
2018-05-01T11:29:13.312Z,41.03
2018-05-01T11:31:41.867Z,35.85
2018-05-01T11:34:11.144Z,34.48
2018-05-01T11:36:40.511Z,34.40
2018-05-01T11:39:08.983Z,33.42
2018-05-01T11:41:38.483Z,33.24
2018-05-01T11:44:06.969Z,35.62
2018-05-01T11:46:35.673Z,33.91
2018-05-01T11:49:04.217Z,35.13
2018-05-01T11:51:32.899Z,33.13
2018-05-01T11:54:01.413Z,33.21
2018-05-01T11:56:29.768Z,37.74
2018-05-01T11:58:58.553Z,38.57
2018-05-01T12:01:27.259Z,36.15
2018-05-01T12:03:55.949Z,35.28
2018-05-01T12:06:24.359Z,33.24
2018-05-01T12:08:53.899Z,35.35
2018-05-01T12:11:22.388Z,37.17
2018-05-01T12:13:50.877Z,38.96
2018-05-01T12:16:19.362Z,41.64
2018-05-01T12:18:47.948Z,38.94
2018-05-01T12:21:17.324Z,40.50
2018-05-01T12:23:46.000Z,40.90
2018-05-01T12:26:14.302Z,42.45
2018-05-01T12:28:43.206Z,40.57
2018-05-01T12:31:12.241Z,40.70
2018-05-01T12:33:40.674Z,35.67
2018-05-01T12:36:09.431Z,34.63
2018-05-01T12:38:37.882Z,35.58
2018-05-01T12:41:07.207Z,36.53
2018-05-01T12:43:35.549Z,34.41
2018-05-01T12:46:04.732Z,37.30
2018-05-01T12:48:33.871Z,39.21
2018-05-01T12:51:02.373Z,39.86
2018-05-01T12:53:30.853Z,38.59
2018-05-01T12:55:59.381Z,38.54
2018-05-01T12:58:28.467Z,38.72
2018-05-01T13:00:57.915Z,41.46
2018-05-01T13:03:27.009Z,40.33
2018-05-01T13:05:55.343Z,39.43
2018-05-01T13:08:24.292Z,39.37
2018-05-01T13:10:53.102Z,38.51
2018-05-01T13:13:21.673Z,38.68
2018-05-01T13:15:50.859Z,38.89
2018-05-01T13:18:19.360Z,42.74
2018-05-01T13:20:48.000Z,41.12
2018-05-01T13:23:17.509Z,39.85
2018-05-01T13:25:45.921Z,40.11
2018-05-01T13:28:15.670Z,39.00
2018-05-01T13:30:44.346Z,38.97
2018-05-01T13:33:12.704Z,37.60
2018-05-01T13:35:41.459Z,39.59
2018-05-01T13:38:09.918Z,39.22
2018-05-01T13:40:38.523Z,38.57
2018-05-01T13:43:06.886Z,38.81
2018-05-01T13:45:36.520Z,39.99
2018-05-01T13:48:05.826Z,40.91
2018-05-01T13:50:34.292Z,38.83
2018-05-01T13:53:02.967Z,39.86
2018-05-01T13:55:31.465Z,38.47
2018-05-01T13:58:00.057Z,38.51
2018-05-01T14:00:29.448Z,37.65
2018-05-01T14:02:57.915Z,37.46
2018-05-01T14:05:30.471Z,36.51
2018-05-01T14:07:58.951Z,35.95
2018-05-01T14:10:27.716Z,36.68
2018-05-01T14:12:56.334Z,36.00
2018-05-01T14:15:25.217Z,36.69
2018-05-01T14:17:53.800Z,37.43
2018-05-01T14:20:22.404Z,37.85
2018-05-01T14:22:50.878Z,38.40
2018-05-01T14:25:19.381Z,38.68
2018-05-01T14:27:54.136Z,38.67
2018-05-01T14:30:22.671Z,37.06
2018-05-01T14:32:51.062Z,37.64
2018-05-01T14:35:20.032Z,38.99
2018-05-01T14:37:48.718Z,37.65
2018-05-01T14:40:17.009Z,38.94
2018-05-01T14:42:47.537Z,38.65
2018-05-01T14:45:15.909Z,38.62
2018-05-01T14:47:45.117Z,38.22
2018-05-01T14:50:13.615Z,37.45
2018-05-01T14:52:42.197Z,38.79
2018-05-01T14:55:11.734Z,39.21
2018-05-01T14:57:40.256Z,40.22
2018-05-01T15:00:09.977Z,39.36
2018-05-01T15:05:45.006Z,42.28
2018-05-01T15:08:13.606Z,41.37
2018-05-01T15:10:47.318Z,40.02
2018-05-01T15:13:15.808Z,40.74
2018-05-01T15:15:45.051Z,39.84
2018-05-01T15:18:13.424Z,39.69
2018-05-01T15:20:41.936Z,40.12
2018-05-01T15:23:10.317Z,39.42
2018-05-01T15:25:38.863Z,39.54
2018-05-01T15:28:07.336Z,39.19
2018-05-01T15:30:35.757Z,36.93
2018-05-01T15:33:05.431Z,36.33
2018-05-01T15:35:33.961Z,36.71
2018-05-01T15:38:03.218Z,35.88
2018-05-01T15:40:32.625Z,35.94
2018-05-01T15:43:01.412Z,36.10
2018-05-01T15:45:29.903Z,36.73
2018-05-01T15:47:58.399Z,37.06
2018-05-01T15:50:26.968Z,35.30
2018-05-01T15:52:55.577Z,34.57
2018-05-01T15:55:24.397Z,35.13
2018-05-01T15:57:53.883Z,36.31
2018-05-01T16:00:22.720Z,36.36
2018-05-01T16:02:51.180Z,38.53
2018-05-01T16:05:19.515Z,36.02
2018-05-01T16:07:48.760Z,35.48
2018-05-01T16:10:17.338Z,36.21
2018-05-01T16:12:45.819Z,36.40
2018-05-01T16:15:14.605Z,36.43
2018-05-01T16:17:43.201Z,36.54
2018-05-01T16:20:12.041Z,37.26
2018-05-01T16:22:41.485Z,38.94
2018-05-01T16:25:10.443Z,38.31
2018-05-01T16:27:39.053Z,35.41
2018-05-01T16:30:07.715Z,35.73
2018-05-01T16:32:36.108Z,37.12
2018-05-01T16:35:04.565Z,37.09
2018-05-01T16:37:33.097Z,36.56
2018-05-01T16:40:02.029Z,36.56
2018-05-01T16:42:30.559Z,37.46
2018-05-01T16:44:59.678Z,37.85
2018-05-01T16:47:28.938Z,38.04
2018-05-01T16:49:57.408Z,37.42
2018-05-01T16:52:27.031Z,38.50
2018-05-01T16:54:55.535Z,37.21
2018-05-01T16:57:24.112Z,37.60
2018-05-01T16:59:52.503Z,37.86
2018-05-01T17:02:20.881Z,40.75
2018-05-01T17:04:49.438Z,39.97
2018-05-01T17:07:18.071Z,38.23
2018-05-01T17:09:48.135Z,39.47
2018-05-01T17:12:16.950Z,39.07
2018-05-01T17:14:49.486Z,39.20
2018-05-01T17:17:18.046Z,39.44
2018-05-01T17:19:46.528Z,40.02
2018-05-01T17:22:15.138Z,39.42
2018-05-01T17:24:43.730Z,39.55
2018-05-01T17:27:12.239Z,39.90
2018-05-01T17:29:40.775Z,39.91
2018-05-01T17:32:09.122Z,40.11
2018-05-01T17:34:38.326Z,38.84
2018-05-01T17:37:07.036Z,40.32
2018-05-01T17:39:35.840Z,43.02
2018-05-01T17:42:04.303Z,40.14
2018-05-01T17:44:32.659Z,39.57
2018-05-01T17:47:01.033Z,39.86
2018-05-01T17:49:30.465Z,39.61
2018-05-01T17:51:59.165Z,40.70
2018-05-01T17:54:28.098Z,40.13
2018-05-01T17:56:56.620Z,41.27
2018-05-01T17:59:25.149Z,41.05
2018-05-01T18:01:54.330Z,46.16
2018-05-01T18:04:22.847Z,40.55
2018-05-01T18:06:52.276Z,41.02
2018-05-01T18:09:20.792Z,41.60
2018-05-01T18:11:50.283Z,41.56
2018-05-01T18:14:18.661Z,41.46
2018-05-01T18:16:47.351Z,41.29
2018-05-01T18:19:16.103Z,42.20
2018-05-01T18:21:45.013Z,43.07
2018-05-01T18:24:14.351Z,42.17
2018-05-01T18:26:44.031Z,43.09
2018-05-01T18:29:12.460Z,46.85
2018-05-01T18:31:41.228Z,46.78
2018-05-01T18:34:10.136Z,49.56
2018-05-01T18:36:38.541Z,51.83
2018-05-01T18:39:12.211Z,52.72
2018-05-01T18:41:41.092Z,53.54
2018-05-01T18:44:11.593Z,52.82
2018-05-01T18:46:40.291Z,52.82
2018-05-01T18:49:09.583Z,53.51
2018-05-01T18:51:38.943Z,52.20
2018-05-01T18:54:08.456Z,51.53
2018-05-01T18:56:36.841Z,52.19
2018-05-01T18:59:05.794Z,51.79
2018-05-01T19:01:34.471Z,53.04
2018-05-01T19:04:03.794Z,51.47
2018-05-01T19:06:32.352Z,52.46
2018-05-01T19:09:01.626Z,51.80
2018-05-01T19:11:30.263Z,52.49
2018-05-01T19:13:59.047Z,53.30
2018-05-01T19:16:27.459Z,53.25
2018-05-01T19:18:56.252Z,53.77
2018-05-01T19:21:24.679Z,54.00
2018-05-01T19:23:53.028Z,52.67
2018-05-01T19:26:21.715Z,53.14
2018-05-01T19:28:50.459Z,54.13
2018-05-01T19:31:19.861Z,53.59
2018-05-01T19:33:50.127Z,53.40
2018-05-01T19:36:18.621Z,55.29
2018-05-01T19:38:47.070Z,54.67
2018-05-01T19:41:15.595Z,55.10
2018-05-01T19:43:44.387Z,53.75
2018-05-01T19:46:12.957Z,54.17
2018-05-01T19:48:42.002Z,53.20
2018-05-01T19:51:10.978Z,54.80
2018-05-01T19:53:39.644Z,53.90
2018-05-01T19:56:08.358Z,55.14
2018-05-01T19:58:37.141Z,53.77
2018-05-01T20:01:05.697Z,55.13
2018-05-01T20:03:34.335Z,54.82
2018-05-01T20:06:02.985Z,53.94
2018-05-01T20:08:31.582Z,54.48
2018-05-01T20:11:00.438Z,55.55
2018-05-01T20:13:29.115Z,54.25
2018-05-01T20:15:57.458Z,56.07
2018-05-01T20:18:26.652Z,56.19
2018-05-01T20:20:55.139Z,56.93
2018-05-01T20:23:23.663Z,56.94
2018-05-01T20:25:52.049Z,56.10
2018-05-01T20:28:20.613Z,57.43
2018-05-01T20:30:49.096Z,57.54
2018-05-01T20:33:17.740Z,58.02
2018-05-01T20:35:47.092Z,57.75
2018-05-01T20:38:15.414Z,57.38
2018-05-01T20:40:44.756Z,58.08
2018-05-01T20:43:13.061Z,59.49
2018-05-01T20:45:41.746Z,58.74
2018-05-01T20:48:10.301Z,58.09
2018-05-01T20:50:39.141Z,58.17
2018-05-01T20:53:07.799Z,56.80
2018-05-01T20:55:36.388Z,58.37
2018-05-01T20:58:04.747Z,57.58
2018-05-01T21:00:33.115Z,57.62
2018-05-01T21:03:01.375Z,57.67
2018-05-01T21:05:29.638Z,58.61
2018-05-01T21:07:58.231Z,59.68
2018-05-01T21:10:26.546Z,59.42
2018-05-01T21:12:54.841Z,61.03
2018-05-01T21:15:23.912Z,60.58
2018-05-01T21:17:52.211Z,59.62
2018-05-01T21:20:21.249Z,61.44
2018-05-01T21:22:49.560Z,60.13
2018-05-01T21:25:17.815Z,60.04
2018-05-01T21:27:46.141Z,60.86
2018-05-01T21:30:15.163Z,60.46
2018-05-01T21:32:43.441Z,62.68
2018-05-01T21:35:11.709Z,60.62
2018-05-01T21:37:40.021Z,60.63
2018-05-01T21:40:08.298Z,59.63
2018-05-01T21:42:36.547Z,61.24
2018-05-01T21:45:04.850Z,61.19
2018-05-01T21:47:33.107Z,61.12
2018-05-01T21:50:01.959Z,60.04
2018-05-01T21:52:30.230Z,61.55
2018-05-01T21:54:59.308Z,61.40
2018-05-01T21:57:27.687Z,62.79
2018-05-01T21:59:56.731Z,62.59
2018-05-01T22:02:25.002Z,63.20
2018-05-01T22:04:53.269Z,63.14
2018-05-01T22:07:21.522Z,63.08
2018-05-01T22:09:49.818Z,64.08
2018-05-01T22:12:18.071Z,63.87
2018-05-01T22:14:46.383Z,62.32
2018-05-01T22:17:14.643Z,63.99
2018-05-01T22:19:42.922Z,64.42
2018-05-01T22:22:11.204Z,64.56
2018-05-01T22:24:39.500Z,65.68
2018-05-01T22:27:07.757Z,65.04
2018-05-01T22:29:36.061Z,63.84
2018-05-01T22:32:04.932Z,64.33
2018-05-01T22:34:33.214Z,65.17
2018-05-01T22:37:01.532Z,64.33
2018-05-01T22:39:30.572Z,64.40
2018-05-01T22:41:58.853Z,65.52
2018-05-01T22:44:27.214Z,66.77
2018-05-01T22:46:55.490Z,65.16
2018-05-01T22:49:23.857Z,64.77
2018-05-01T22:51:52.154Z,64.31
2018-05-01T22:54:20.438Z,65.14
2018-05-01T22:56:48.719Z,66.12
2018-05-01T22:59:17.783Z,65.97
2018-05-01T23:01:46.173Z,65.86
2018-05-01T23:04:14.485Z,65.53
2018-05-01T23:06:42.713Z,66.08
2018-05-01T23:09:10.964Z,65.15
2018-05-01T23:11:39.223Z,65.23
2018-05-01T23:14:08.724Z,64.90
2018-05-01T23:16:37.758Z,64.20
2018-05-01T23:19:06.061Z,64.95
2018-05-01T23:21:34.462Z,63.38
2018-05-01T23:24:03.482Z,62.72
2018-05-01T23:26:31.759Z,64.00
2018-05-01T23:29:00.052Z,63.92
2018-05-01T23:31:28.326Z,64.87
2018-05-01T23:33:56.585Z,65.06
2018-05-01T23:36:24.851Z,65.58
2018-05-01T23:38:53.114Z,63.84
2018-05-01T23:41:22.165Z,65.49
2018-05-01T23:43:50.437Z,65.77
2018-05-01T23:46:18.678Z,66.11
2018-05-01T23:48:46.943Z,65.57
2018-05-01T23:51:15.193Z,66.85
2018-05-01T23:53:44.350Z,66.19
2018-05-01T23:56:12.698Z,66.45
2018-05-01T23:58:40.979Z,68.04
